sensor_id;sensor_type;location;lat;lon;timestamp;temperature;humidity
30150;DHT22;16962;48.646;9.026;2023-07-31T00:02:34;13.20;1.00
30150;DHT22;16962;48.646;9.026;2023-07-31T00:05:22;13.40;1.00
30150;DHT22;16962;48.646;9.026;2023-07-31T00:08:09;13.50;1.00
30150;DHT22;16962;48.646;9.026;2023-07-31T00:10:56;13.50;99.90
30150;DHT22;16962;48.646;9.026;2023-07-31T00:13:44;13.50;99.90
30150;DHT22;16962;48.646;9.026;2023-07-31T00:16:31;13.60;68.10
30150;DHT22;16962;48.646;9.026;2023-07-31T00:19:19;13.60;12.20
30150;DHT22;16962;48.646;9.026;2023-07-31T00:22:08;13.70;1.00
30150;DHT22;16962;48.646;9.026;2023-07-31T00:24:56;13.60;1.00
30150;DHT22;16962;48.646;9.026;2023-07-31T00:27:44;13.60;1.00
30150;DHT22;16962;48.646;9.026;2023-07-31T00:30:33;13.50;1.00
30150;DHT22;16962;48.646;9.026;2023-07-31T00:33:20;13.40;35.00
30150;DHT22;16962;48.646;9.026;2023-07-31T00:36:10;13.40;31.50
30150;DHT22;16962;48.646;9.026;2023-07-31T00:38:57;13.40;38.90
30150;DHT22;16962;48.646;9.026;2023-07-31T00:41:44;13.40;99.90
30150;DHT22;16962;48.646;9.026;2023-07-31T00:44:31;13.30;99.90
30150;DHT22;16962;48.646;9.026;2023-07-31T00:47:19;13.30;99.90
30150;DHT22;16962;48.646;9.026;2023-07-31T00:50:07;13.30;99.90
30150;DHT22;16962;48.646;9.026;2023-07-31T00:52:56;13.30;99.90
30150;DHT22;16962;48.646;9.026;2023-07-31T00:55:44;13.30;99.90
30150;DHT22;16962;48.646;9.026;2023-07-31T00:58:32;13.30;99.90
30150;DHT22;16962;48.646;9.026;2023-07-31T01:01:22;13.30;99.90
30150;DHT22;16962;48.646;9.026;2023-07-31T01:04:13;13.40;99.90
30150;DHT22;16962;48.646;9.026;2023-07-31T01:10:20;13.50;1.00
30150;DHT22;16962;48.646;9.026;2023-07-31T01:13:12;13.50;1.00
30150;DHT22;16962;48.646;9.026;2023-07-31T01:15:59;13.60;1.00
30150;DHT22;16962;48.646;9.026;2023-07-31T01:18:48;13.60;1.00
30150;DHT22;16962;48.646;9.026;2023-07-31T01:24:30;13.60;1.00
30150;DHT22;16962;48.646;9.026;2023-07-31T01:27:28;13.70;99.90
30150;DHT22;16962;48.646;9.026;2023-07-31T01:30:22;13.70;99.90
30150;DHT22;16962;48.646;9.026;2023-07-31T01:33:16;13.70;99.90
30150;DHT22;16962;48.646;9.026;2023-07-31T01:36:03;13.60;99.90
30150;DHT22;16962;48.646;9.026;2023-07-31T01:38:58;13.60;99.90
30150;DHT22;16962;48.646;9.026;2023-07-31T01:41:46;13.60;99.90
30150;DHT22;16962;48.646;9.026;2023-07-31T01:44:39;13.60;99.90
30150;DHT22;16962;48.646;9.026;2023-07-31T01:47:27;13.60;99.90
30150;DHT22;16962;48.646;9.026;2023-07-31T01:50:14;13.70;99.90
30150;DHT22;16962;48.646;9.026;2023-07-31T01:53:09;13.70;99.90
30150;DHT22;16962;48.646;9.026;2023-07-31T01:55:56;13.70;99.90
30150;DHT22;16962;48.646;9.026;2023-07-31T01:58:43;13.60;99.90
30150;DHT22;16962;48.646;9.026;2023-07-31T02:01:32;13.40;99.90
30150;DHT22;16962;48.646;9.026;2023-07-31T02:04:19;13.30;99.90
30150;DHT22;16962;48.646;9.026;2023-07-31T02:07:07;13.20;1.00
30150;DHT22;16962;48.646;9.026;2023-07-31T02:09:54;13.20;1.00
30150;DHT22;16962;48.646;9.026;2023-07-31T02:12:45;13.30;1.00
30150;DHT22;16962;48.646;9.026;2023-07-31T02:15:34;13.40;1.00
30150;DHT22;16962;48.646;9.026;2023-07-31T02:18:21;13.30;1.00
30150;DHT22;16962;48.646;9.026;2023-07-31T02:21:09;13.30;1.00
30150;DHT22;16962;48.646;9.026;2023-07-31T02:23:56;13.30;1.00
30150;DHT22;16962;48.646;9.026;2023-07-31T02:26:43;13.20;1.00
30150;DHT22;16962;48.646;9.026;2023-07-31T02:29:33;13.20;1.00
30150;DHT22;16962;48.646;9.026;2023-07-31T02:32:20;13.20;25.80
30150;DHT22;16962;48.646;9.026;2023-07-31T02:35:08;13.20;65.00
30150;DHT22;16962;48.646;9.026;2023-07-31T02:37:55;13.20;65.00
30150;DHT22;16962;48.646;9.026;2023-07-31T02:40:42;13.20;76.10
30150;DHT22;16962;48.646;9.026;2023-07-31T02:43:30;13.20;50.50
30150;DHT22;16962;48.646;9.026;2023-07-31T02:46:19;13.20;42.20
30150;DHT22;16962;48.646;9.026;2023-07-31T02:49:07;13.20;1.00
30150;DHT22;16962;48.646;9.026;2023-07-31T02:51:54;13.20;1.00
30150;DHT22;16962;48.646;9.026;2023-07-31T02:54:41;13.20;1.00
30150;DHT22;16962;48.646;9.026;2023-07-31T02:57:28;13.20;1.00
30150;DHT22;16962;48.646;9.026;2023-07-31T03:00:15;13.20;1.00
30150;DHT22;16962;48.646;9.026;2023-07-31T03:03:05;13.20;1.00
30150;DHT22;16962;48.646;9.026;2023-07-31T03:05:54;13.20;1.00
30150;DHT22;16962;48.646;9.026;2023-07-31T03:08:41;13.30;1.00
30150;DHT22;16962;48.646;9.026;2023-07-31T03:11:29;13.30;99.90
30150;DHT22;16962;48.646;9.026;2023-07-31T03:14:16;13.40;99.90
30150;DHT22;16962;48.646;9.026;2023-07-31T03:17:04;13.40;99.90
30150;DHT22;16962;48.646;9.026;2023-07-31T03:19:51;13.50;99.90
30150;DHT22;16962;48.646;9.026;2023-07-31T03:22:40;13.60;99.90
30150;DHT22;16962;48.646;9.026;2023-07-31T03:25:28;13.60;99.90
30150;DHT22;16962;48.646;9.026;2023-07-31T03:28:15;13.60;99.90
30150;DHT22;16962;48.646;9.026;2023-07-31T03:31:02;13.60;92.50
30150;DHT22;16962;48.646;9.026;2023-07-31T03:33:49;13.60;85.10
30150;DHT22;16962;48.646;9.026;2023-07-31T03:36:37;13.50;94.70
30150;DHT22;16962;48.646;9.026;2023-07-31T03:39:25;13.50;99.90
30150;DHT22;16962;48.646;9.026;2023-07-31T03:42:12;13.50;99.90
30150;DHT22;16962;48.646;9.026;2023-07-31T03:44:59;13.60;94.50
30150;DHT22;16962;48.646;9.026;2023-07-31T03:47:46;13.60;65.40
30150;DHT22;16962;48.646;9.026;2023-07-31T03:50:34;13.70;49.40
30150;DHT22;16962;48.646;9.026;2023-07-31T03:53:21;13.70;26.90
30150;DHT22;16962;48.646;9.026;2023-07-31T03:56:08;13.70;25.40
30150;DHT22;16962;48.646;9.026;2023-07-31T03:58:55;13.70;27.20
30150;DHT22;16962;48.646;9.026;2023-07-31T04:01:55;13.80;12.50
30150;DHT22;16962;48.646;9.026;2023-07-31T04:04:56;13.80;1.00
30150;DHT22;16962;48.646;9.026;2023-07-31T04:07:43;13.80;1.00
30150;DHT22;16962;48.646;9.026;2023-07-31T04:10:31;13.80;1.00
30150;DHT22;16962;48.646;9.026;2023-07-31T04:13:22;13.90;1.00
30150;DHT22;16962;48.646;9.026;2023-07-31T04:16:09;13.90;1.00
30150;DHT22;16962;48.646;9.026;2023-07-31T04:18:56;14.00;1.00
30150;DHT22;16962;48.646;9.026;2023-07-31T04:21:43;13.90;1.00
30150;DHT22;16962;48.646;9.026;2023-07-31T04:24:33;13.90;1.00
30150;DHT22;16962;48.646;9.026;2023-07-31T04:27:20;13.90;1.00
30150;DHT22;16962;48.646;9.026;2023-07-31T04:30:08;13.90;1.00
30150;DHT22;16962;48.646;9.026;2023-07-31T04:32:55;14.00;1.00
30150;DHT22;16962;48.646;9.026;2023-07-31T04:35:51;14.00;1.00
30150;DHT22;16962;48.646;9.026;2023-07-31T04:38:39;14.10;1.00
30150;DHT22;16962;48.646;9.026;2023-07-31T04:41:28;14.20;99.90
30150;DHT22;16962;48.646;9.026;2023-07-31T04:44:15;14.20;99.90
30150;DHT22;16962;48.646;9.026;2023-07-31T04:47:02;14.20;99.90
30150;DHT22;16962;48.646;9.026;2023-07-31T04:49:49;14.20;99.90
30150;DHT22;16962;48.646;9.026;2023-07-31T04:52:41;14.20;99.90
30150;DHT22;16962;48.646;9.026;2023-07-31T04:55:28;14.30;99.90
30150;DHT22;16962;48.646;9.026;2023-07-31T04:58:16;14.30;99.90
30150;DHT22;16962;48.646;9.026;2023-07-31T05:01:03;14.40;99.90
30150;DHT22;16962;48.646;9.026;2023-07-31T05:03:50;14.40;99.90
30150;DHT22;16962;48.646;9.026;2023-07-31T05:06:41;14.40;99.90
30150;DHT22;16962;48.646;9.026;2023-07-31T05:09:29;14.40;99.90
30150;DHT22;16962;48.646;9.026;2023-07-31T05:12:18;14.50;99.90
30150;DHT22;16962;48.646;9.026;2023-07-31T05:15:06;14.50;99.90
30150;DHT22;16962;48.646;9.026;2023-07-31T05:17:53;14.40;99.90
30150;DHT22;16962;48.646;9.026;2023-07-31T05:20:41;14.40;99.90
30150;DHT22;16962;48.646;9.026;2023-07-31T05:23:28;14.40;99.90
30150;DHT22;16962;48.646;9.026;2023-07-31T05:26:16;14.40;99.90
30150;DHT22;16962;48.646;9.026;2023-07-31T05:29:05;14.50;99.90
30150;DHT22;16962;48.646;9.026;2023-07-31T05:31:52;14.50;99.90
30150;DHT22;16962;48.646;9.026;2023-07-31T05:34:39;14.50;99.90
30150;DHT22;16962;48.646;9.026;2023-07-31T05:37:29;14.50;99.90
30150;DHT22;16962;48.646;9.026;2023-07-31T05:40:16;14.60;99.90
30150;DHT22;16962;48.646;9.026;2023-07-31T05:43:28;14.60;99.90
30150;DHT22;16962;48.646;9.026;2023-07-31T05:46:16;14.80;99.90
30150;DHT22;16962;48.646;9.026;2023-07-31T05:53:11;15.20;99.90
30150;DHT22;16962;48.646;9.026;2023-07-31T05:55:58;15.20;99.90
30150;DHT22;16962;48.646;9.026;2023-07-31T05:58:46;15.30;99.90
30150;DHT22;16962;48.646;9.026;2023-07-31T06:01:33;15.30;99.90
30150;DHT22;16962;48.646;9.026;2023-07-31T06:04:20;15.30;99.90
30150;DHT22;16962;48.646;9.026;2023-07-31T06:07:13;15.40;99.90
30150;DHT22;16962;48.646;9.026;2023-07-31T06:10:00;15.40;99.90
30150;DHT22;16962;48.646;9.026;2023-07-31T06:12:59;15.40;99.90
30150;DHT22;16962;48.646;9.026;2023-07-31T06:15:49;15.40;99.90
30150;DHT22;16962;48.646;9.026;2023-07-31T06:18:36;15.50;99.90
30150;DHT22;16962;48.646;9.026;2023-07-31T06:21:41;15.60;99.90
30150;DHT22;16962;48.646;9.026;2023-07-31T06:24:30;15.60;99.90
30150;DHT22;16962;48.646;9.026;2023-07-31T06:27:22;15.70;99.90
30150;DHT22;16962;48.646;9.026;2023-07-31T06:30:10;15.80;99.90
30150;DHT22;16962;48.646;9.026;2023-07-31T06:33:00;15.80;99.70
30150;DHT22;16962;48.646;9.026;2023-07-31T06:35:48;15.90;92.00
30150;DHT22;16962;48.646;9.026;2023-07-31T06:38:35;15.90;77.60
30150;DHT22;16962;48.646;9.026;2023-07-31T06:41:24;16.20;43.60
30150;DHT22;16962;48.646;9.026;2023-07-31T06:44:11;16.40;13.90
30150;DHT22;16962;48.646;9.026;2023-07-31T06:46:59;16.50;1.00
30150;DHT22;16962;48.646;9.026;2023-07-31T06:49:48;16.70;1.00
30150;DHT22;16962;48.646;9.026;2023-07-31T06:52:40;16.90;1.00
30150;DHT22;16962;48.646;9.026;2023-07-31T06:55:36;17.00;1.00
30150;DHT22;16962;48.646;9.026;2023-07-31T06:58:24;17.10;1.00
30150;DHT22;16962;48.646;9.026;2023-07-31T07:01:13;17.00;1.00
30150;DHT22;16962;48.646;9.026;2023-07-31T07:04:02;16.90;1.00
30150;DHT22;16962;48.646;9.026;2023-07-31T07:06:53;17.00;1.00
30150;DHT22;16962;48.646;9.026;2023-07-31T07:09:42;17.20;99.90
30150;DHT22;16962;48.646;9.026;2023-07-31T07:12:35;17.20;99.90
30150;DHT22;16962;48.646;9.026;2023-07-31T07:18:40;17.60;99.90
30150;DHT22;16962;48.646;9.026;2023-07-31T07:22:03;17.60;99.90
30150;DHT22;16962;48.646;9.026;2023-07-31T07:25:17;17.30;99.90
30150;DHT22;16962;48.646;9.026;2023-07-31T07:28:07;17.10;99.90
30150;DHT22;16962;48.646;9.026;2023-07-31T07:30:55;17.20;99.90
30150;DHT22;16962;48.646;9.026;2023-07-31T07:33:43;17.40;99.90
30150;DHT22;16962;48.646;9.026;2023-07-31T07:36:30;17.30;99.90
30150;DHT22;16962;48.646;9.026;2023-07-31T07:39:19;17.00;99.90
30150;DHT22;16962;48.646;9.026;2023-07-31T07:42:08;17.00;99.90
30150;DHT22;16962;48.646;9.026;2023-07-31T07:44:57;17.00;99.90
30150;DHT22;16962;48.646;9.026;2023-07-31T07:47:45;17.30;99.90
30150;DHT22;16962;48.646;9.026;2023-07-31T07:50:32;17.60;99.90
30150;DHT22;16962;48.646;9.026;2023-07-31T07:53:20;17.90;99.90
30150;DHT22;16962;48.646;9.026;2023-07-31T07:56:08;18.10;99.90
30150;DHT22;16962;48.646;9.026;2023-07-31T07:59:02;17.80;99.90
30150;DHT22;16962;48.646;9.026;2023-07-31T08:01:52;17.90;99.90
30150;DHT22;16962;48.646;9.026;2023-07-31T08:04:41;18.40;99.90
30150;DHT22;16962;48.646;9.026;2023-07-31T08:07:28;18.80;99.90
30150;DHT22;16962;48.646;9.026;2023-07-31T08:10:19;19.00;99.90
30150;DHT22;16962;48.646;9.026;2023-07-31T08:13:09;19.20;99.90
30150;DHT22;16962;48.646;9.026;2023-07-31T08:15:56;19.30;99.90
30150;DHT22;16962;48.646;9.026;2023-07-31T08:18:44;19.20;99.90
30150;DHT22;16962;48.646;9.026;2023-07-31T08:21:32;19.00;99.90
30150;DHT22;16962;48.646;9.026;2023-07-31T08:24:22;19.50;99.90
30150;DHT22;16962;48.646;9.026;2023-07-31T08:27:14;19.60;99.90
30150;DHT22;16962;48.646;9.026;2023-07-31T08:30:02;19.70;99.90
30150;DHT22;16962;48.646;9.026;2023-07-31T08:32:51;20.00;99.90
30150;DHT22;16962;48.646;9.026;2023-07-31T08:35:39;20.50;99.90
30150;DHT22;16962;48.646;9.026;2023-07-31T08:38:45;20.40;99.90
30150;DHT22;16962;48.646;9.026;2023-07-31T08:41:47;20.10;99.90
30150;DHT22;16962;48.646;9.026;2023-07-31T08:44:36;19.70;99.90
30150;DHT22;16962;48.646;9.026;2023-07-31T08:47:25;19.70;99.90
30150;DHT22;16962;48.646;9.026;2023-07-31T08:50:13;19.80;99.90
30150;DHT22;16962;48.646;9.026;2023-07-31T08:53:01;19.80;99.90
30150;DHT22;16962;48.646;9.026;2023-07-31T08:55:49;19.70;99.90
30150;DHT22;16962;48.646;9.026;2023-07-31T08:58:43;19.50;99.90
30150;DHT22;16962;48.646;9.026;2023-07-31T09:01:38;19.20;99.90
30150;DHT22;16962;48.646;9.026;2023-07-31T09:04:27;19.20;99.90
30150;DHT22;16962;48.646;9.026;2023-07-31T09:07:21;19.30;99.90
30150;DHT22;16962;48.646;9.026;2023-07-31T09:10:09;19.30;99.90
30150;DHT22;16962;48.646;9.026;2023-07-31T09:12:59;19.40;99.90
30150;DHT22;16962;48.646;9.026;2023-07-31T09:15:50;18.90;99.90
30150;DHT22;16962;48.646;9.026;2023-07-31T09:18:53;19.00;99.90
30150;DHT22;16962;48.646;9.026;2023-07-31T09:21:49;19.30;99.90
30150;DHT22;16962;48.646;9.026;2023-07-31T09:24:40;19.80;99.90
30150;DHT22;16962;48.646;9.026;2023-07-31T09:27:49;19.70;99.90
30150;DHT22;16962;48.646;9.026;2023-07-31T09:30:48;20.00;99.90
30150;DHT22;16962;48.646;9.026;2023-07-31T09:33:59;19.80;99.90
30150;DHT22;16962;48.646;9.026;2023-07-31T09:37:13;19.90;99.90
30150;DHT22;16962;48.646;9.026;2023-07-31T09:40:09;20.10;99.90
30150;DHT22;16962;48.646;9.026;2023-07-31T09:43:13;20.40;99.90
30150;DHT22;16962;48.646;9.026;2023-07-31T09:46:15;20.20;99.90
30150;DHT22;16962;48.646;9.026;2023-07-31T09:49:12;20.30;99.90
30150;DHT22;16962;48.646;9.026;2023-07-31T09:52:14;20.40;99.90
30150;DHT22;16962;48.646;9.026;2023-07-31T09:55:02;20.90;99.90
30150;DHT22;16962;48.646;9.026;2023-07-31T09:57:49;21.40;99.90
30150;DHT22;16962;48.646;9.026;2023-07-31T10:00:37;22.10;99.90
30150;DHT22;16962;48.646;9.026;2023-07-31T10:03:39;22.30;99.90
30150;DHT22;16962;48.646;9.026;2023-07-31T10:06:34;22.90;99.90
30150;DHT22;16962;48.646;9.026;2023-07-31T10:09:26;22.80;99.90
30150;DHT22;16962;48.646;9.026;2023-07-31T10:12:19;22.80;99.90
30150;DHT22;16962;48.646;9.026;2023-07-31T10:15:08;23.20;99.90
30150;DHT22;16962;48.646;9.026;2023-07-31T10:17:56;23.50;99.90
30150;DHT22;16962;48.646;9.026;2023-07-31T10:20:46;23.30;99.00
30150;DHT22;16962;48.646;9.026;2023-07-31T10:23:37;22.40;93.40
30150;DHT22;16962;48.646;9.026;2023-07-31T10:26:26;22.90;93.20
30150;DHT22;16962;48.646;9.026;2023-07-31T10:29:17;23.00;89.90
30150;DHT22;16962;48.646;9.026;2023-07-31T10:32:09;23.10;86.50
30150;DHT22;16962;48.646;9.026;2023-07-31T10:34:59;23.60;90.40
30150;DHT22;16962;48.646;9.026;2023-07-31T10:37:50;23.40;91.80
30150;DHT22;16962;48.646;9.026;2023-07-31T10:40:41;22.80;85.60
30150;DHT22;16962;48.646;9.026;2023-07-31T10:43:38;21.80;83.80
30150;DHT22;16962;48.646;9.026;2023-07-31T10:46:25;22.10;91.90
30150;DHT22;16962;48.646;9.026;2023-07-31T10:49:21;22.40;99.90
30150;DHT22;16962;48.646;9.026;2023-07-31T10:52:13;22.40;97.60
30150;DHT22;16962;48.646;9.026;2023-07-31T10:55:26;22.40;97.60
30150;DHT22;16962;48.646;9.026;2023-07-31T10:58:19;22.40;93.70
30150;DHT22;16962;48.646;9.026;2023-07-31T11:01:17;22.30;96.30
30150;DHT22;16962;48.646;9.026;2023-07-31T11:04:10;21.90;98.00
30150;DHT22;16962;48.646;9.026;2023-07-31T11:07:02;21.80;91.90
30150;DHT22;16962;48.646;9.026;2023-07-31T11:09:51;21.70;97.40
30150;DHT22;16962;48.646;9.026;2023-07-31T11:12:39;21.50;95.70
30150;DHT22;16962;48.646;9.026;2023-07-31T11:15:27;21.20;95.20
30150;DHT22;16962;48.646;9.026;2023-07-31T11:18:15;21.00;94.80
30150;DHT22;16962;48.646;9.026;2023-07-31T11:21:05;21.30;98.70
30150;DHT22;16962;48.646;9.026;2023-07-31T11:23:57;21.60;94.40
30150;DHT22;16962;48.646;9.026;2023-07-31T11:26:50;21.50;97.20
30150;DHT22;16962;48.646;9.026;2023-07-31T11:29:39;21.10;95.80
30150;DHT22;16962;48.646;9.026;2023-07-31T11:32:29;20.90;99.20
30150;DHT22;16962;48.646;9.026;2023-07-31T11:35:20;20.90;97.00
30150;DHT22;16962;48.646;9.026;2023-07-31T11:38:33;20.80;94.30
30150;DHT22;16962;48.646;9.026;2023-07-31T11:41:23;20.70;94.10
30150;DHT22;16962;48.646;9.026;2023-07-31T11:44:11;20.80;94.90
30150;DHT22;16962;48.646;9.026;2023-07-31T11:47:15;20.80;96.30
30150;DHT22;16962;48.646;9.026;2023-07-31T11:50:05;20.90;95.30
30150;DHT22;16962;48.646;9.026;2023-07-31T11:52:57;21.10;95.40
30150;DHT22;16962;48.646;9.026;2023-07-31T11:55:46;21.20;94.90
30150;DHT22;16962;48.646;9.026;2023-07-31T11:58:35;21.20;93.20
30150;DHT22;16962;48.646;9.026;2023-07-31T12:01:23;21.00;99.90
30150;DHT22;16962;48.646;9.026;2023-07-31T12:04:15;20.70;99.90
30150;DHT22;16962;48.646;9.026;2023-07-31T12:07:21;20.50;99.30
30150;DHT22;16962;48.646;9.026;2023-07-31T12:18:49;21.10;99.90
30150;DHT22;16962;48.646;9.026;2023-07-31T12:26:46;22.10;99.90
30150;DHT22;16962;48.646;9.026;2023-07-31T12:34:17;21.40;99.90
30150;DHT22;16962;48.646;9.026;2023-07-31T12:44:56;23.70;99.90
30150;DHT22;16962;48.646;9.026;2023-07-31T12:47:51;26.00;99.90
30150;DHT22;16962;48.646;9.026;2023-07-31T12:51:07;27.80;99.90
30150;DHT22;16962;48.646;9.026;2023-07-31T12:54:03;27.30;99.90
30150;DHT22;16962;48.646;9.026;2023-07-31T12:56:50;26.30;96.70
30150;DHT22;16962;48.646;9.026;2023-07-31T13:17:03;28.60;99.90
30150;DHT22;16962;48.646;9.026;2023-07-31T13:20:25;29.70;95.10
30150;DHT22;16962;48.646;9.026;2023-07-31T13:23:41;28.80;76.10
30150;DHT22;16962;48.646;9.026;2023-07-31T13:27:03;26.20;74.50
30150;DHT22;16962;48.646;9.026;2023-07-31T13:30:28;24.80;69.90
30150;DHT22;16962;48.646;9.026;2023-07-31T13:38:03;23.50;65.50
30150;DHT22;16962;48.646;9.026;2023-07-31T13:41:19;23.30;70.80
30150;DHT22;16962;48.646;9.026;2023-07-31T13:44:46;23.00;75.00
30150;DHT22;16962;48.646;9.026;2023-07-31T13:47:36;22.60;83.70
30150;DHT22;16962;48.646;9.026;2023-07-31T13:50:26;22.50;71.10
30150;DHT22;16962;48.646;9.026;2023-07-31T13:57:29;22.10;76.80
30150;DHT22;16962;48.646;9.026;2023-07-31T14:00:18;22.10;79.70
30150;DHT22;16962;48.646;9.026;2023-07-31T14:03:08;22.10;84.10
30150;DHT22;16962;48.646;9.026;2023-07-31T14:05:57;22.30;79.80
30150;DHT22;16962;48.646;9.026;2023-07-31T14:08:48;22.40;64.60
30150;DHT22;16962;48.646;9.026;2023-07-31T14:11:38;22.30;66.30
30150;DHT22;16962;48.646;9.026;2023-07-31T14:14:29;22.00;64.70
30150;DHT22;16962;48.646;9.026;2023-07-31T14:17:16;21.80;67.10
30150;DHT22;16962;48.646;9.026;2023-07-31T14:20:12;21.80;72.50
30150;DHT22;16962;48.646;9.026;2023-07-31T14:23:00;21.80;83.10
30150;DHT22;16962;48.646;9.026;2023-07-31T14:25:48;21.80;69.50
30150;DHT22;16962;48.646;9.026;2023-07-31T14:28:38;21.80;77.00
30150;DHT22;16962;48.646;9.026;2023-07-31T14:31:40;21.70;74.90
30150;DHT22;16962;48.646;9.026;2023-07-31T14:34:27;21.60;82.90
30150;DHT22;16962;48.646;9.026;2023-07-31T14:37:17;21.40;87.10
30150;DHT22;16962;48.646;9.026;2023-07-31T14:40:11;21.50;87.20
30150;DHT22;16962;48.646;9.026;2023-07-31T14:43:04;21.40;92.00
30150;DHT22;16962;48.646;9.026;2023-07-31T14:45:52;21.40;92.10
30150;DHT22;16962;48.646;9.026;2023-07-31T14:48:47;21.40;92.50
30150;DHT22;16962;48.646;9.026;2023-07-31T14:51:37;21.50;79.50
30150;DHT22;16962;48.646;9.026;2023-07-31T14:54:30;21.50;81.10
30150;DHT22;16962;48.646;9.026;2023-07-31T14:57:17;21.60;75.50
30150;DHT22;16962;48.646;9.026;2023-07-31T15:00:05;21.80;74.20
30150;DHT22;16962;48.646;9.026;2023-07-31T15:02:54;22.10;99.90
30150;DHT22;16962;48.646;9.026;2023-07-31T15:05:42;22.10;93.10
30150;DHT22;16962;48.646;9.026;2023-07-31T15:08:30;22.00;96.70
30150;DHT22;16962;48.646;9.026;2023-07-31T15:11:27;22.00;99.90
30150;DHT22;16962;48.646;9.026;2023-07-31T15:14:16;21.90;99.90
30150;DHT22;16962;48.646;9.026;2023-07-31T15:17:03;21.60;97.60
30150;DHT22;16962;48.646;9.026;2023-07-31T15:19:51;21.60;75.20
30150;DHT22;16962;48.646;9.026;2023-07-31T15:22:39;21.70;84.20
30150;DHT22;16962;48.646;9.026;2023-07-31T15:25:29;21.80;86.50
30150;DHT22;16962;48.646;9.026;2023-07-31T15:28:49;21.70;92.70
30150;DHT22;16962;48.646;9.026;2023-07-31T15:31:48;21.60;92.30
30150;DHT22;16962;48.646;9.026;2023-07-31T15:38:53;21.50;88.80
30150;DHT22;16962;48.646;9.026;2023-07-31T15:45:55;21.50;71.40
30150;DHT22;16962;48.646;9.026;2023-07-31T15:48:54;21.50;85.40
30150;DHT22;16962;48.646;9.026;2023-07-31T15:56:40;21.80;79.50
30150;DHT22;16962;48.646;9.026;2023-07-31T15:59:36;22.00;95.70
30150;DHT22;16962;48.646;9.026;2023-07-31T16:03:07;22.00;40.70
30150;DHT22;16962;48.646;9.026;2023-07-31T16:05:56;22.30;72.30
30150;DHT22;16962;48.646;9.026;2023-07-31T16:08:44;22.90;91.10
30150;DHT22;16962;48.646;9.026;2023-07-31T16:11:31;23.00;84.80
30150;DHT22;16962;48.646;9.026;2023-07-31T16:14:40;23.00;96.90
30150;DHT22;16962;48.646;9.026;2023-07-31T16:17:28;22.80;93.50
30150;DHT22;16962;48.646;9.026;2023-07-31T16:20:16;22.60;46.90
30150;DHT22;16962;48.646;9.026;2023-07-31T16:23:03;22.50;48.60
30150;DHT22;16962;48.646;9.026;2023-07-31T16:25:55;22.40;48.60
30150;DHT22;16962;48.646;9.026;2023-07-31T16:28:46;22.10;54.20
30150;DHT22;16962;48.646;9.026;2023-07-31T16:31:33;21.90;57.80
30150;DHT22;16962;48.646;9.026;2023-07-31T16:34:43;21.80;55.30
30150;DHT22;16962;48.646;9.026;2023-07-31T16:37:33;21.60;55.90
30150;DHT22;16962;48.646;9.026;2023-07-31T16:40:21;21.50;56.70
30150;DHT22;16962;48.646;9.026;2023-07-31T16:43:08;21.40;60.50
30150;DHT22;16962;48.646;9.026;2023-07-31T16:45:58;21.40;64.60
30150;DHT22;16962;48.646;9.026;2023-07-31T16:48:46;21.30;66.70
30150;DHT22;16962;48.646;9.026;2023-07-31T16:51:33;21.30;71.20
30150;DHT22;16962;48.646;9.026;2023-07-31T16:54:24;21.30;77.50
30150;DHT22;16962;48.646;9.026;2023-07-31T16:57:12;21.20;85.50
30150;DHT22;16962;48.646;9.026;2023-07-31T17:00:03;21.20;86.50
30150;DHT22;16962;48.646;9.026;2023-07-31T17:02:56;21.20;94.00
30150;DHT22;16962;48.646;9.026;2023-07-31T17:05:43;21.10;89.50
30150;DHT22;16962;48.646;9.026;2023-07-31T17:08:33;21.10;88.30
30150;DHT22;16962;48.646;9.026;2023-07-31T17:11:22;21.10;88.10
30150;DHT22;16962;48.646;9.026;2023-07-31T17:14:09;21.10;99.90
30150;DHT22;16962;48.646;9.026;2023-07-31T17:16:59;21.10;99.90
30150;DHT22;16962;48.646;9.026;2023-07-31T17:19:52;21.00;99.90
30150;DHT22;16962;48.646;9.026;2023-07-31T17:22:40;21.00;99.90
30150;DHT22;16962;48.646;9.026;2023-07-31T17:25:38;21.00;99.90
30150;DHT22;16962;48.646;9.026;2023-07-31T17:28:33;21.00;99.90
30150;DHT22;16962;48.646;9.026;2023-07-31T17:31:23;21.00;91.10
30150;DHT22;16962;48.646;9.026;2023-07-31T17:34:48;21.00;76.60
30150;DHT22;16962;48.646;9.026;2023-07-31T17:38:41;20.90;87.10
30150;DHT22;16962;48.646;9.026;2023-07-31T17:58:39;20.70;96.60
30150;DHT22;16962;48.646;9.026;2023-07-31T18:01:27;20.70;97.90
30150;DHT22;16962;48.646;9.026;2023-07-31T18:04:28;20.60;94.20
30150;DHT22;16962;48.646;9.026;2023-07-31T18:07:25;20.60;98.10
30150;DHT22;16962;48.646;9.026;2023-07-31T18:10:20;20.60;99.80
30150;DHT22;16962;48.646;9.026;2023-07-31T18:13:16;20.60;99.90
30150;DHT22;16962;48.646;9.026;2023-07-31T18:16:09;20.50;99.90
30150;DHT22;16962;48.646;9.026;2023-07-31T18:18:57;20.50;99.90
30150;DHT22;16962;48.646;9.026;2023-07-31T18:22:04;20.50;99.90
30150;DHT22;16962;48.646;9.026;2023-07-31T18:24:57;20.40;99.90
30150;DHT22;16962;48.646;9.026;2023-07-31T18:27:57;20.30;99.90
30150;DHT22;16962;48.646;9.026;2023-07-31T18:31:08;20.00;99.90
30150;DHT22;16962;48.646;9.026;2023-07-31T18:34:17;19.50;99.90
30150;DHT22;16962;48.646;9.026;2023-07-31T18:37:09;19.00;99.90
30150;DHT22;16962;48.646;9.026;2023-07-31T18:40:05;18.70;99.90
30150;DHT22;16962;48.646;9.026;2023-07-31T18:42:57;18.30;99.90
30150;DHT22;16962;48.646;9.026;2023-07-31T18:45:45;17.90;1.00
30150;DHT22;16962;48.646;9.026;2023-07-31T18:48:40;17.50;1.00
30150;DHT22;16962;48.646;9.026;2023-07-31T18:51:28;17.40;10.60
30150;DHT22;16962;48.646;9.026;2023-07-31T18:54:19;17.30;39.40
30150;DHT22;16962;48.646;9.026;2023-07-31T18:57:07;17.20;1.00
30150;DHT22;16962;48.646;9.026;2023-07-31T19:00:17;17.10;99.90
30150;DHT22;16962;48.646;9.026;2023-07-31T19:03:30;17.00;36.10
30150;DHT22;16962;48.646;9.026;2023-07-31T19:06:27;17.00;99.90
30150;DHT22;16962;48.646;9.026;2023-07-31T19:09:30;17.00;99.90
30150;DHT22;16962;48.646;9.026;2023-07-31T19:12:26;17.00;96.70
30150;DHT22;16962;48.646;9.026;2023-07-31T19:15:24;16.90;1.00
30150;DHT22;16962;48.646;9.026;2023-07-31T19:18:31;16.80;99.90
30150;DHT22;16962;48.646;9.026;2023-07-31T19:21:18;16.70;48.80
30150;DHT22;16962;48.646;9.026;2023-07-31T19:24:07;16.60;99.90
30150;DHT22;16962;48.646;9.026;2023-07-31T19:26:55;16.50;99.90
30150;DHT22;16962;48.646;9.026;2023-07-31T19:29:43;16.40;99.90
30150;DHT22;16962;48.646;9.026;2023-07-31T19:32:31;16.40;99.90
30150;DHT22;16962;48.646;9.026;2023-07-31T19:35:24;16.40;99.90
30150;DHT22;16962;48.646;9.026;2023-07-31T19:38:15;16.30;99.90
30150;DHT22;16962;48.646;9.026;2023-07-31T19:41:06;16.30;99.90
30150;DHT22;16962;48.646;9.026;2023-07-31T19:43:54;16.30;99.90
30150;DHT22;16962;48.646;9.026;2023-07-31T19:46:48;16.30;99.90